x

South Brooks (46132) Wave Buoy

12:00pm - Thu 27th Nov 2014 All times are PST. -8 hours from GMT.

  • Sig Wave height 11.8ft
  • Peak Period 12s
  • Wind
    25mph, 29mph gusts
  • Sea Temp 53°f
  • Air Temp 55°f
  • Sea Pressure 998.6mb
  • South Brooks
  • South Brooks

More Historic Weather Station data

Upgrade to MSW Pro to gain access to the past 30 days of data for over 8000 Wavebouys and Weather Stations around the globe.

Join Pro

Comparision Forecast

View Surf forecast
   
Thu 11/27 12:00pm 12ft 12s 25 29 mph 998.6mb 53f 55f
11:00am 11.5ft 12s 27 31 mph 999.3mb 53f 54f
10:00am 12ft 13s 22 27 mph 1000mb 53f 55f
9:00am 11ft 12s 22 29 mph 1000.2mb 53f 54f
8:00am 12ft 12s 25 29 mph 1000mb 53f 55f
7:00am 11.5ft 12s 22 27 mph 1000mb 54f 55f
6:00am 10.5ft 10s 20 25 mph 1000.4mb 54f 55f
5:00am 10.5ft 8s 18 22 mph 1001.1mb 54f 55f
4:00am 10.5ft 8s 20 22 mph 1001.5mb 54f 55f
3:00am 9.5ft 8s 18 22 mph 1002.1mb 54f 55f
2:00am 10ft 9s 18 22 mph 1002.5mb 54f 55f
1:00am 10ft 8s 18 22 mph 1002.7mb 54f 55f
12:00am 10.5ft 8s 16 20 mph 1003.1mb 54f 55f
Wed 11/26 11:00pm 9.5ft 8s 18 25 mph 1002.9mb 54f 55f
10:00pm 11ft 8s 20 25 mph 1002.3mb 54f 55f
9:00pm 10ft 8s 20 25 mph 1001.3mb 54f 55f
8:00pm 10ft 7s 20 25 mph 1000.8mb 54f 55f
7:00pm 10ft 7s 27 38 mph 1000mb 54f 55f
6:00pm 8.5ft 6s 34 40 mph 1000mb 54f 54f
5:00pm 8.5ft 6s 31 38 mph 1001.7mb 54f 54f
4:00pm 7.5ft 5s 31 36 mph 1003.1mb 54f 54f
3:00pm 6.5ft 6s 27 31 mph 1005.3mb 54f 54f
2:00pm 7ft 11s 27 31 mph 1006.6mb 54f 55f
1:00pm 6ft 9s 22 27 mph 1007.7mb 53f 54f
12:00pm 6.5ft 9s 22 27 mph 1009.7mb 53f 54f
11:00am 6ft 7s 20 25 mph 1010.8mb 53f 54f
10:00am 6ft 12s 18 22 mph 1011.8mb 53f 54f
9:00am 6ft 12s 16 20 mph 1012mb 53f 54f
8:00am 6.5ft 12s 16 20 mph 1011.8mb 53f 54f
7:00am 6ft 7s 11 16 mph 1012.7mb 53f 54f
6:00am 6ft 12s 9 11 mph 1012.7mb 53f 52f
5:00am 6.5ft 8s 13 16 mph 1013.5mb 54f 50f
4:00am 6ft 12s 13 18 mph 1013.6mb 54f 49f
3:00am 6ft 12s 13 16 mph 1015.1mb 54f 49f
2:00am 6ft 10s 13 18 mph 1015.3mb 54f 49f
1:00am 6ft 11s 11 13 mph 1016.1mb 53f 49f
12:00am 6ft 12s 11 13 mph 1016.7mb 53f 49f
Tue 11/25 11:00pm 5.5ft 13s 11 13 mph 1017.2mb 53f 49f
10:00pm 6ft 12s 11 13 mph 1017.5mb 53f 48f
9:00pm 6ft 11s 11 13 mph 1017.7mb 53f 48f
8:00pm 6ft 12s 13 16 mph 1017.7mb 53f 47f
7:00pm 6ft 11s 13 16 mph 1018mb 53f 47f
6:00pm 7ft 12s 11 16 mph 1018.4mb 53f 47f
5:00pm 6ft 11s 11 16 mph 1019.1mb 53f 46f
4:00pm 6ft 12s 11 16 mph 1019.2mb 53f 47f
3:00pm 7ft 12s 11 16 mph 1019.9mb 53f 47f
2:00pm 7ft 11s 11 16 mph 1020.2mb 53f 47f
1:00pm 7.5ft 12s 11 16 mph 1021.2mb 53f 46f
12:00pm 8ft 11s 9 11 mph 1021.8mb 53f 47f
11:00am 8ft 11s 11 16 mph 1022.3mb 53f 48f
10:00am 8.5ft 13s 9 11 mph 1022.2mb 53f 49f
9:00am 8.5ft 14s 9 13 mph 1022.5mb 53f 50f
8:00am 7.5ft 13s 7 13 mph 1021.9mb 53f 51f
7:00am 9ft 12s 7 9 mph 1021.5mb 53f 52f
6:00am 9ft 12s 2 4 mph 1021.7mb 53f 52f
5:00am 9ft 11s 9 11 mph 1021.8mb 53f 52f
4:00am 10.5ft 12s 9 11 mph 1021.3mb 53f 52f
3:00am 9.5ft 13s 11 13 mph 1021.5mb 53f 52f
2:00am 10.5ft 11s 11 13 mph 1020.8mb 53f 52f
1:00am 11ft 13s 9 11 mph 1020.7mb 53f 52f
12:00am 11ft 12s 13 16 mph 1021mb 53f 53f
Mon 11/24 11:00pm 10.5ft 12s 13 16 mph 1020.3mb 53f 53f
10:00pm 10.5ft 14s 16 18 mph 1019.8mb 53f 53f
9:00pm 10ft 14s 16 20 mph 1018.9mb 53f 53f
8:00pm 11ft 14s 16 18 mph 1018.4mb 53f 53f
7:00pm 10ft 13s 20 25 mph 1017.8mb 54f 53f
6:00pm 10ft 13s 18 22 mph 1017mb 53f 53f
5:00pm 11ft 14s 22 27 mph 1016mb 53f 53f
4:00pm 11ft 13s 20 25 mph 1015.6mb 53f 53f
3:00pm 12ft 13s 16 20 mph 1014.8mb 53f 53f
2:00pm 12ft 10s 9 11 mph 1014.2mb 53f 54f
1:00pm 13.5ft 12s 13 16 mph 1014mb 53f 54f
12:00pm 14ft 10s 20 25 mph 1015mb 53f 54f
11:00am 13ft 14s 22 27 mph 1015mb 53f 55f
10:00am 13.5ft 12s 22 27 mph 1015mb 53f 54f
9:00am 13.5ft 14s 22 27 mph 1015.4mb 53f 54f
8:00am 14ft 13s 25 29 mph 1015.9mb 53f 54f
7:00am 13ft 14s 25 31 mph 1016.3mb 53f 54f
6:00am 12ft 14s 18 27 mph 1017.5mb 53f 54f
5:00am 12ft 12s 22 31 mph 1018.2mb 53f 52f
4:00am 12.5ft 14s 29 36 mph 1018.7mb 53f 51f
3:00am 11.5ft 13s 27 36 mph 1019.3mb 53f 51f
2:00am 13ft 14s 25 29 mph 1020.4mb 53f 50f
1:00am 13ft 14s 22 29 mph 1021.4mb 53f 53f
12:00am 12ft 13s 20 27 mph 1021.8mb 53f 53f
Sun 11/23 11:00pm 13ft 13s 18 20 mph 1022mb 53f 53f
10:00pm 13.5ft 14s 16 22 mph 1022.4mb 53f 53f